createdAt,value
2023-09-10T00:01:29.773Z,97492.41
2023-09-10T00:03:57.937Z,97494.19
2023-09-10T00:06:26.027Z,97488.81
2023-09-10T00:08:55.015Z,97493.47
2023-09-10T00:11:23.014Z,97493.59
2023-09-10T00:13:53.627Z,97482.72
2023-09-10T00:16:21.955Z,97498.28
2023-09-10T00:18:50.216Z,97488.25
2023-09-10T00:21:18.284Z,97484.09
2023-09-10T00:23:47.094Z,97486.94
2023-09-10T00:26:15.157Z,97488.16
2023-09-10T00:28:43.496Z,97487.56
2023-09-10T00:31:12.247Z,97491.06
2023-09-10T00:33:40.505Z,97484.66
2023-09-10T00:36:08.870Z,97482.88
2023-09-10T00:38:37.285Z,97482.50
2023-09-10T00:41:06.966Z,97485.91
2023-09-10T00:43:35.546Z,97481.44
2023-09-10T00:46:04.625Z,97475.03
2023-09-10T00:48:33.516Z,97478.94
2023-09-10T00:51:02.423Z,97477.28
2023-09-10T00:53:30.984Z,97474.34
2023-09-10T00:55:59.358Z,97475.84
2023-09-10T00:58:28.005Z,97467.66
2023-09-10T01:00:56.332Z,97475.34
2023-09-10T01:03:29.368Z,97467.41
2023-09-10T01:05:57.824Z,97469.69
2023-09-10T01:08:26.429Z,97469.53
2023-09-10T01:11:17.268Z,97480.53
2023-09-10T01:14:04.771Z,97469.97
2023-09-10T01:16:53.152Z,97463.50
2023-09-10T01:20:11.985Z,97470.66
2023-09-10T01:22:57.986Z,97468.84
2023-09-10T01:25:26.519Z,97461.50
2023-09-10T01:27:54.815Z,97475.72
2023-09-10T01:30:25.929Z,97475.13
2023-09-10T01:33:03.819Z,97486.25
2023-09-10T01:35:36.998Z,97482.06
2023-09-10T01:38:28.112Z,97474.16
2023-09-10T01:41:10.160Z,97477.63
2023-09-10T01:43:39.806Z,97476.00
2023-09-10T01:46:09.661Z,97476.44
2023-09-10T01:48:38.756Z,97482.06
2023-09-10T01:51:07.780Z,97484.88
2023-09-10T01:53:39.397Z,97483.13
2023-09-10T01:56:07.593Z,97475.41
2023-09-10T01:58:36.126Z,97482.59
2023-09-10T02:01:04.345Z,97485.03
2023-09-10T02:03:33.697Z,97482.19
2023-09-10T02:06:03.678Z,97497.31
2023-09-10T02:08:33.405Z,97479.91
2023-09-10T02:11:09.824Z,97483.91
2023-09-10T02:13:37.997Z,97486.91
2023-09-10T02:16:06.322Z,97488.16
2023-09-10T02:18:35.116Z,97483.44
2023-09-10T02:21:13.834Z,97490.06
2023-09-10T02:23:43.433Z,97497.94
2023-09-10T02:26:12.338Z,97495.00
2023-09-10T02:28:41.099Z,97502.91
2023-09-10T02:31:11.207Z,97500.44
2023-09-10T02:33:39.488Z,97505.47
2023-09-10T02:36:07.762Z,97508.72
2023-09-10T02:38:36.887Z,97501.72
2023-09-10T02:41:05.663Z,97499.66
2023-09-10T02:43:34.024Z,97488.81
2023-09-10T02:46:02.806Z,97502.81
2023-09-10T02:48:31.239Z,97500.31
2023-09-10T02:51:00.039Z,97505.72
2023-09-10T02:53:28.358Z,97497.84
2023-09-10T02:56:04.665Z,97502.41
2023-09-10T02:58:33.048Z,97505.78
2023-09-10T03:01:07.630Z,97504.72
2023-09-10T03:03:35.950Z,97506.56
2023-09-10T03:06:04.308Z,97511.56
2023-09-10T03:08:32.466Z,97520.47
2023-09-10T03:11:04.730Z,97510.91
2023-09-10T03:13:33.376Z,97525.47
2023-09-10T03:16:01.725Z,97510.03
2023-09-10T03:18:30.086Z,97521.69
2023-09-10T03:20:58.194Z,97523.16
2023-09-10T03:23:26.920Z,97524.00
2023-09-10T03:25:55.015Z,97524.56
2023-09-10T03:28:25.930Z,97524.53
2023-09-10T03:30:58.806Z,97533.03
2023-09-10T03:33:29.159Z,97525.09
2023-09-10T03:35:57.304Z,97529.19
2023-09-10T03:38:25.726Z,97529.59
2023-09-10T03:40:54.577Z,97534.75
2023-09-10T03:43:24.896Z,97528.38
2023-09-10T03:45:53.276Z,97525.50
2023-09-10T03:48:21.457Z,97535.44
2023-09-10T03:50:49.610Z,97529.59
2023-09-10T03:53:17.745Z,97535.50
2023-09-10T03:55:46.637Z,97544.53
2023-09-10T03:58:15.078Z,97542.31
2023-09-10T04:00:43.493Z,97530.38
2023-09-10T04:03:12.553Z,97527.81
2023-09-10T04:05:41.056Z,97527.78
2023-09-10T04:08:09.205Z,97539.56
2023-09-10T04:10:37.374Z,97538.97
2023-09-10T04:13:06.280Z,97535.78
2023-09-10T04:15:34.706Z,97542.97
2023-09-10T04:18:02.764Z,97540.50
2023-09-10T04:20:31.707Z,97539.56
2023-09-10T04:23:00.122Z,97539.88
2023-09-10T04:25:28.430Z,97544.59
2023-09-10T04:27:57.263Z,97550.72
2023-09-10T04:30:25.642Z,97537.00
2023-09-10T04:32:56.851Z,97541.28
2023-09-10T04:35:25.447Z,97541.66
2023-09-10T04:37:56.058Z,97544.59
2023-09-10T04:40:24.387Z,97546.50
2023-09-10T04:42:52.447Z,97546.31
2023-09-10T04:45:20.821Z,97550.59
2023-09-10T04:47:48.920Z,97548.19
2023-09-10T04:50:17.173Z,97541.88
2023-09-10T04:52:45.532Z,97565.78
2023-09-10T04:55:13.789Z,97569.13
2023-09-10T04:57:42.104Z,97562.13
2023-09-10T05:00:10.753Z,97564.75
2023-09-10T05:02:39.144Z,97554.88
2023-09-10T05:05:08.349Z,97558.34
2023-09-10T05:07:36.683Z,97561.31
2023-09-10T05:10:04.970Z,97563.88
2023-09-10T05:12:33.273Z,97569.41
2023-09-10T05:15:01.283Z,97551.84
2023-09-10T05:17:30.039Z,97572.91
2023-09-10T05:19:58.234Z,97565.25
2023-09-10T05:22:26.772Z,97571.72
2023-09-10T05:24:55.455Z,97574.38
2023-09-10T05:27:23.764Z,97576.72
2023-09-10T05:29:52.071Z,97578.50
2023-09-10T05:32:20.227Z,97573.59
2023-09-10T05:34:48.476Z,97575.16
2023-09-10T05:37:17.170Z,97581.13
2023-09-10T05:39:45.173Z,97587.91
2023-09-10T05:42:13.221Z,97589.75
2023-09-10T05:44:41.464Z,97588.56
2023-09-10T05:47:09.591Z,97576.69
2023-09-10T05:49:37.730Z,97592.81
2023-09-10T05:52:09.137Z,97593.88
2023-09-10T05:54:37.433Z,97596.16
2023-09-10T05:57:05.547Z,97592.59
2023-09-10T05:59:36.186Z,97592.94
2023-09-10T06:02:04.903Z,97606.97
2023-09-10T06:04:33.103Z,97599.94
2023-09-10T06:07:04.487Z,97609.06
2023-09-10T06:09:33.283Z,97613.31
2023-09-10T06:12:02.325Z,97615.91
2023-09-10T06:14:31.222Z,97610.00
2023-09-10T06:16:59.562Z,97615.06
2023-09-10T06:19:27.750Z,97615.91
2023-09-10T06:21:56.127Z,97624.38
2023-09-10T06:24:24.790Z,97621.66
2023-09-10T06:26:54.643Z,97625.75
2023-09-10T06:29:24.548Z,97621.91
2023-09-10T06:31:53.972Z,97631.19
2023-09-10T06:34:22.290Z,97632.88
2023-09-10T06:36:51.035Z,97621.25
2023-09-10T06:39:19.408Z,97631.03
2023-09-10T06:41:48.789Z,97629.91
2023-09-10T06:44:17.745Z,97637.97
2023-09-10T06:46:49.083Z,97639.78
2023-09-10T06:49:17.157Z,97636.69
2023-09-10T06:51:45.167Z,97638.03
2023-09-10T06:54:13.211Z,97638.47
2023-09-10T06:56:41.516Z,97631.63
2023-09-10T06:59:12.345Z,97635.78
2023-09-10T07:01:43.386Z,97647.56
2023-09-10T07:04:19.743Z,97649.75
2023-09-10T07:06:49.459Z,97641.91
2023-09-10T07:09:24.791Z,97648.28
2023-09-10T07:11:54.385Z,97651.53
2023-09-10T07:14:23.955Z,97653.97
2023-09-10T07:16:52.358Z,97657.22
2023-09-10T07:19:23.311Z,97658.81
2023-09-10T07:21:51.609Z,97657.25
2023-09-10T07:24:20.376Z,97659.59
2023-09-10T07:26:48.724Z,97660.25
2023-09-10T07:29:17.704Z,97670.34
2023-09-10T07:31:46.657Z,97671.22
2023-09-10T07:34:17.943Z,97661.53
2023-09-10T07:36:46.281Z,97673.56
2023-09-10T07:39:15.517Z,97662.63
2023-09-10T07:41:43.809Z,97668.28
2023-09-10T07:44:12.019Z,97668.31
2023-09-10T07:46:40.293Z,97674.91
2023-09-10T07:49:08.569Z,97677.75
2023-09-10T07:51:37.333Z,97683.88
2023-09-10T07:54:05.798Z,97673.50
2023-09-10T07:56:34.074Z,97680.13
2023-09-10T07:59:02.220Z,97674.19
2023-09-10T08:01:30.578Z,97680.06
2023-09-10T08:03:59.426Z,97687.91
2023-09-10T08:06:28.839Z,97681.59
2023-09-10T08:08:56.868Z,97677.72
2023-09-10T08:11:25.315Z,97681.34
2023-09-10T08:13:54.561Z,97682.66
2023-09-10T08:16:23.167Z,97690.50
2023-09-10T08:18:51.722Z,97677.75
2023-09-10T08:21:19.826Z,97685.97
2023-09-10T08:23:47.933Z,97687.53
2023-09-10T08:26:16.162Z,97680.38
2023-09-10T08:28:44.486Z,97681.63
2023-09-10T08:31:12.837Z,97685.75
2023-09-10T08:33:41.564Z,97683.75
2023-09-10T08:36:09.625Z,97690.50
2023-09-10T08:38:38.685Z,97683.34
2023-09-10T08:41:20.312Z,97684.88
2023-09-10T08:43:56.459Z,97682.34
2023-09-10T08:46:27.109Z,97686.22
2023-09-10T08:48:56.181Z,97691.66
2023-09-10T08:51:24.817Z,97689.53
2023-09-10T08:54:00.206Z,97685.75
2023-09-10T08:56:29.720Z,97692.03
2023-09-10T08:59:04.780Z,97693.94
2023-09-10T09:01:36.808Z,97691.75
2023-09-10T09:04:05.633Z,97699.69
2023-09-10T09:06:38.527Z,97694.13
2023-09-10T09:09:08.267Z,97697.38
2023-09-10T09:11:41.608Z,97696.56
2023-09-10T09:14:11.690Z,97704.47
2023-09-10T09:16:42.021Z,97700.06
2023-09-10T09:19:13.824Z,97698.72
2023-09-10T09:21:43.438Z,97702.94
2023-09-10T09:24:14.482Z,97699.13
2023-09-10T09:26:43.075Z,97711.66
2023-09-10T09:29:12.732Z,97704.03
2023-09-10T09:31:40.800Z,97704.44
2023-09-10T09:34:08.782Z,97702.47
2023-09-10T09:36:41.054Z,97718.00
2023-09-10T09:39:09.368Z,97709.41
2023-09-10T09:41:37.836Z,97711.16
2023-09-10T09:44:06.444Z,97708.75
2023-09-10T09:46:35.927Z,97707.66
2023-09-10T09:49:04.665Z,97704.66
2023-09-10T09:51:33.241Z,97705.38
2023-09-10T09:54:04.963Z,97710.25
2023-09-10T09:56:33.121Z,97711.03
2023-09-10T09:59:02.032Z,97714.00
2023-09-10T10:01:31.940Z,97710.91
2023-09-10T10:04:00.259Z,97708.91
2023-09-10T10:06:29.208Z,97714.50
2023-09-10T10:08:59.647Z,97709.81
2023-09-10T10:11:33.437Z,97704.09
2023-09-10T10:14:02.613Z,97711.72
2023-09-10T10:16:32.066Z,97709.47
2023-09-10T10:19:02.990Z,97708.06
2023-09-10T10:21:34.308Z,97710.81
2023-09-10T10:24:04.291Z,97702.34
2023-09-10T10:26:33.076Z,97708.88
2023-09-10T10:29:02.470Z,97708.50
2023-09-10T10:31:34.094Z,97719.16
2023-09-10T10:34:11.237Z,97713.06
2023-09-10T10:37:17.879Z,97716.53
2023-09-10T10:40:10.607Z,97709.25
2023-09-10T10:42:52.242Z,97711.06
2023-09-10T10:45:21.153Z,97715.22
2023-09-10T10:47:50.930Z,97712.56
2023-09-10T10:50:33.171Z,97713.78
2023-09-10T10:53:07.618Z,97710.97
2023-09-10T10:55:36.292Z,97704.97
2023-09-10T10:58:05.092Z,97718.47
2023-09-10T11:00:33.845Z,97707.19
2023-09-10T11:03:18.766Z,97716.44
2023-09-10T11:05:55.915Z,97717.59
2023-09-10T11:08:43.753Z,97719.59
2023-09-10T11:11:32.614Z,97714.22
2023-09-10T11:14:05.591Z,97713.47
2023-09-10T11:16:35.459Z,97708.50
2023-09-10T11:19:05.569Z,97716.94
2023-09-10T11:21:58.463Z,97724.56
2023-09-10T11:24:27.087Z,97727.44
2023-09-10T11:27:22.095Z,97718.44
2023-09-10T11:30:06.594Z,97719.53
2023-09-10T11:32:35.061Z,97707.72
2023-09-10T11:35:29.279Z,97721.44
2023-09-10T11:37:58.832Z,97708.16
2023-09-10T11:40:27.791Z,97718.81
2023-09-10T11:42:56.263Z,97709.28
2023-09-10T11:45:24.530Z,97710.41
2023-09-10T11:47:53.037Z,97708.16
2023-09-10T11:50:25.841Z,97715.78
2023-09-10T11:52:54.112Z,97712.69
2023-09-10T11:55:22.308Z,97718.09
2023-09-10T11:57:51.731Z,97710.75
2023-09-10T12:00:20.124Z,97711.53
2023-09-10T12:02:48.936Z,97706.22
2023-09-10T12:05:17.061Z,97710.78
2023-09-10T12:07:45.809Z,97709.53
2023-09-10T12:10:13.956Z,97711.16
2023-09-10T12:12:45.437Z,97712.66
2023-09-10T12:15:14.362Z,97711.84
2023-09-10T12:17:46.124Z,97718.03
2023-09-10T12:20:15.010Z,97713.78
2023-09-10T12:22:43.893Z,97714.19
2023-09-10T12:25:13.346Z,97711.13
2023-09-10T12:27:41.415Z,97708.50
2023-09-10T12:30:10.155Z,97711.91
2023-09-10T12:32:39.048Z,97714.19
2023-09-10T12:35:07.869Z,97716.84
2023-09-10T12:37:36.124Z,97714.19
2023-09-10T12:40:04.505Z,97718.31
2023-09-10T12:42:32.639Z,97722.16
2023-09-10T12:45:01.067Z,97722.19
2023-09-10T12:47:29.402Z,97716.06
2023-09-10T12:50:01.272Z,97726.81
2023-09-10T12:52:32.642Z,97722.22
2023-09-10T12:55:01.117Z,97719.44
2023-09-10T12:57:29.169Z,97717.47
2023-09-10T12:59:57.482Z,97722.91
2023-09-10T13:02:26.690Z,97717.94
2023-09-10T13:04:56.927Z,97723.94
2023-09-10T13:07:25.764Z,97730.84
2023-09-10T13:09:54.258Z,97724.53
2023-09-10T13:12:22.917Z,97721.38
2023-09-10T13:14:51.165Z,97719.75
2023-09-10T13:17:19.910Z,97712.56
2023-09-10T13:19:49.138Z,97724.03
2023-09-10T13:22:17.213Z,97718.28
2023-09-10T13:24:45.936Z,97703.09
2023-09-10T13:27:14.316Z,97718.69
2023-09-10T13:29:43.543Z,97719.28
2023-09-10T13:32:11.936Z,97707.00
2023-09-10T13:34:40.831Z,97715.31
2023-09-10T13:37:09.140Z,97721.66
2023-09-10T13:39:38.699Z,97713.16
2023-09-10T13:42:08.043Z,97714.41
2023-09-10T13:44:36.257Z,97722.25
2023-09-10T13:47:04.516Z,97718.28
2023-09-10T13:49:32.875Z,97728.06
2023-09-10T13:52:01.157Z,97722.34
2023-09-10T13:54:29.161Z,97730.84
2023-09-10T13:56:57.925Z,97723.97
2023-09-10T13:59:26.019Z,97725.53
2023-09-10T14:01:54.772Z,97722.41
2023-09-10T14:04:23.431Z,97723.66
2023-09-10T14:06:52.729Z,97727.28
2023-09-10T14:09:20.733Z,97725.47
2023-09-10T14:11:48.992Z,97724.03
2023-09-10T14:14:17.140Z,97723.09
2023-09-10T14:16:45.534Z,97735.44
2023-09-10T14:19:13.945Z,97735.56
2023-09-10T14:21:42.062Z,97734.63
2023-09-10T14:24:10.922Z,97724.09
2023-09-10T14:26:39.243Z,97720.94
2023-09-10T14:29:07.485Z,97730.28
2023-09-10T14:31:35.845Z,97745.13
2023-09-10T14:34:04.256Z,97736.94
2023-09-10T14:36:32.435Z,97724.34
2023-09-10T14:39:02.879Z,97739.81
2023-09-10T14:41:31.314Z,97758.50
2023-09-10T14:43:59.928Z,97775.69
2023-09-10T14:46:28.337Z,97789.03
2023-09-10T14:48:56.678Z,97778.16
2023-09-10T14:51:24.705Z,97787.22
2023-09-10T14:53:52.711Z,97817.25
2023-09-10T14:56:21.173Z,97813.03
2023-09-10T14:58:50.799Z,97818.94
2023-09-10T15:01:19.143Z,97817.25
2023-09-10T15:03:47.414Z,97822.16
2023-09-10T15:06:15.538Z,97825.84
2023-09-10T15:08:46.770Z,97825.72
2023-09-10T15:11:15.092Z,97823.75
2023-09-10T15:13:43.604Z,97825.66
2023-09-10T15:16:11.704Z,97833.28
2023-09-10T15:18:39.949Z,97832.56
2023-09-10T15:21:07.986Z,97836.25
2023-09-10T15:23:36.132Z,97839.47
2023-09-10T15:26:04.911Z,97841.81
2023-09-10T15:28:33.238Z,97832.47
2023-09-10T15:31:01.308Z,97829.50
2023-09-10T15:33:29.379Z,97822.50
2023-09-10T15:35:57.689Z,97822.84
2023-09-10T15:38:25.708Z,97837.84
2023-09-10T15:40:54.451Z,97829.91
2023-09-10T15:43:23.390Z,97827.97
2023-09-10T15:45:54.075Z,97833.00
2023-09-10T15:48:22.933Z,97838.78
2023-09-10T15:50:51.232Z,97829.69
2023-09-10T15:53:19.332Z,97838.22
2023-09-10T15:55:47.506Z,97837.19
2023-09-10T15:58:15.848Z,97828.34
2023-09-10T16:00:44.330Z,97788.00
2023-09-10T16:03:12.472Z,97786.16
2023-09-10T16:05:41.129Z,97759.09
2023-09-10T16:08:09.933Z,97743.91
2023-09-10T16:10:37.970Z,97728.00
2023-09-10T16:13:06.868Z,97725.22
2023-09-10T16:15:35.771Z,97723.47
2023-09-10T16:18:03.983Z,97720.47
2023-09-10T16:20:32.524Z,97716.31
2023-09-10T16:23:00.833Z,97712.59
2023-09-10T16:25:29.228Z,97712.69
2023-09-10T16:27:57.784Z,97713.91
2023-09-10T16:30:26.137Z,97718.47
2023-09-10T16:32:54.578Z,97727.72
2023-09-10T16:35:22.886Z,97764.16
2023-09-10T16:37:51.247Z,97805.56
2023-09-10T16:40:20.093Z,97793.91
2023-09-10T16:42:49.422Z,97763.94
2023-09-10T16:45:18.075Z,97791.81
2023-09-10T16:47:46.336Z,97801.88
2023-09-10T16:50:14.695Z,97788.00
2023-09-10T16:52:42.802Z,97732.56
2023-09-10T16:55:11.069Z,97704.78
2023-09-10T16:57:39.359Z,97683.84
2023-09-10T17:00:10.046Z,97687.16
2023-09-10T17:02:40.799Z,97684.81
2023-09-10T17:05:10.312Z,97682.88
2023-09-10T17:07:38.359Z,97674.53
2023-09-10T17:10:07.164Z,97666.97
2023-09-10T17:12:35.469Z,97667.72
2023-09-10T17:15:03.484Z,97659.19
2023-09-10T17:17:37.378Z,97663.13
2023-09-10T17:20:07.227Z,97654.44
2023-09-10T17:22:35.458Z,97655.41
2023-09-10T17:25:04.452Z,97647.38
2023-09-10T17:27:32.766Z,97649.13
2023-09-10T17:30:01.550Z,97644.84
2023-09-10T17:32:32.238Z,97642.63
2023-09-10T17:35:00.534Z,97646.94
2023-09-10T17:37:28.941Z,97631.91
2023-09-10T17:39:57.186Z,97632.09
2023-09-10T17:42:25.259Z,97627.88
2023-09-10T17:44:53.646Z,97620.88
2023-09-10T17:47:22.956Z,97619.81
2023-09-10T17:50:03.490Z,97619.38
2023-09-10T17:52:36.680Z,97622.22
2023-09-10T17:55:04.901Z,97614.47
2023-09-10T17:57:33.888Z,97602.56
2023-09-10T18:00:01.985Z,97610.34
2023-09-10T18:02:33.199Z,97600.81
2023-09-10T18:05:01.736Z,97590.66
2023-09-10T18:07:30.278Z,97594.28
2023-09-10T18:09:58.662Z,97582.13
2023-09-10T18:12:27.048Z,97586.03
2023-09-10T18:14:55.442Z,97582.41
2023-09-10T18:17:24.277Z,97576.75
2023-09-10T18:19:52.429Z,97575.47
2023-09-10T18:22:20.849Z,97572.34
2023-09-10T18:24:49.176Z,97574.31
2023-09-10T18:27:17.247Z,97561.75
2023-09-10T18:29:46.209Z,97558.03
2023-09-10T18:32:14.719Z,97553.38
2023-09-10T18:34:42.870Z,97548.38
2023-09-10T18:37:13.403Z,97542.50
2023-09-10T18:39:41.983Z,97533.66
2023-09-10T18:42:10.749Z,97536.22
2023-09-10T18:44:39.052Z,97537.47
2023-09-10T18:47:07.248Z,97522.19
2023-09-10T18:49:36.354Z,97513.31
2023-09-10T18:52:06.286Z,97517.91
2023-09-10T18:54:34.680Z,97520.69
2023-09-10T18:57:04.773Z,97516.53
2023-09-10T18:59:34.186Z,97502.56
2023-09-10T19:02:04.928Z,97504.06
2023-09-10T19:04:33.285Z,97501.59
2023-09-10T19:07:04.711Z,97493.16
2023-09-10T19:09:33.000Z,97491.16
2023-09-10T19:12:01.065Z,97485.81
2023-09-10T19:14:29.849Z,97487.47
2023-09-10T19:16:57.889Z,97475.66
2023-09-10T19:19:26.482Z,97468.09
2023-09-10T19:21:54.770Z,97465.81
2023-09-10T19:24:26.550Z,97464.00
2023-09-10T19:26:54.588Z,97451.88
2023-09-10T19:29:22.651Z,97446.25
2023-09-10T19:31:50.718Z,97442.53
2023-09-10T19:34:18.841Z,97446.03
2023-09-10T19:36:48.575Z,97441.44
2023-09-10T19:39:29.334Z,97436.25
2023-09-10T19:41:57.674Z,97427.53
2023-09-10T19:44:25.824Z,97426.13
2023-09-10T19:46:54.732Z,97423.13
2023-09-10T19:49:24.453Z,97418.34
2023-09-10T19:51:53.024Z,97407.25
2023-09-10T19:54:21.249Z,97398.50
2023-09-10T19:56:50.203Z,97390.06
2023-09-10T19:59:18.463Z,97395.59
2023-09-10T20:01:46.649Z,97388.59
2023-09-10T20:04:15.800Z,97385.75
2023-09-10T20:06:44.319Z,97387.28
2023-09-10T20:09:12.657Z,97379.34
2023-09-10T20:11:40.796Z,97370.94
2023-09-10T20:14:10.233Z,97366.28
2023-09-10T20:16:38.655Z,97364.31
2023-09-10T20:19:06.779Z,97363.44
2023-09-10T20:21:34.844Z,97358.06
2023-09-10T20:24:03.200Z,97362.66
2023-09-10T20:26:31.534Z,97354.44
2023-09-10T20:28:59.750Z,97335.94
2023-09-10T20:31:28.219Z,97341.84
2023-09-10T20:33:57.173Z,97334.13
2023-09-10T20:36:25.233Z,97328.34
2023-09-10T20:38:53.603Z,97321.13
2023-09-10T20:41:24.948Z,97322.69
2023-09-10T20:43:53.253Z,97317.34
2023-09-10T20:46:21.287Z,97305.72
2023-09-10T20:48:49.377Z,97303.75
2023-09-10T20:51:29.811Z,97298.94
2023-09-10T20:53:58.058Z,97294.94
2023-09-10T20:56:26.412Z,97303.16
2023-09-10T20:58:55.937Z,97288.53
2023-09-10T21:01:26.288Z,97285.28
2023-09-10T21:03:54.815Z,97276.41
2023-09-10T21:06:23.331Z,97276.94
2023-09-10T21:08:51.479Z,97270.97
2023-09-10T21:11:19.624Z,97269.03
2023-09-10T21:13:47.899Z,97266.81
2023-09-10T21:16:15.980Z,97257.63
2023-09-10T21:18:44.987Z,97245.44
2023-09-10T21:21:17.312Z,97240.03
2023-09-10T21:23:45.453Z,97248.28
2023-09-10T21:26:13.542Z,97240.75
2023-09-10T21:28:41.907Z,97237.16
2023-09-10T21:31:11.870Z,97236.63
2023-09-10T21:33:40.683Z,97229.88
2023-09-10T21:36:11.940Z,97227.41
2023-09-10T21:38:40.590Z,97222.06
2023-09-10T21:41:09.494Z,97221.19
2023-09-10T21:43:38.193Z,97212.66
2023-09-10T21:46:07.294Z,97215.00
2023-09-10T21:48:35.436Z,97208.47
2023-09-10T21:51:05.227Z,97202.78
2023-09-10T21:53:33.634Z,97201.94
2023-09-10T21:56:02.280Z,97196.91
2023-09-10T21:58:32.973Z,97192.75
2023-09-10T22:01:01.637Z,97198.22
2023-09-10T22:03:30.301Z,97189.53
2023-09-10T22:05:59.358Z,97175.19
2023-09-10T22:08:30.107Z,97173.69
2023-09-10T22:11:05.234Z,97175.06
2023-09-10T22:13:34.395Z,97170.41
2023-09-10T22:16:02.523Z,97165.06
2023-09-10T22:18:30.640Z,97158.31
2023-09-10T22:20:58.661Z,97159.00
2023-09-10T22:23:26.763Z,97159.63
2023-09-10T22:25:55.129Z,97152.13
2023-09-10T22:28:23.718Z,97146.25
2023-09-10T22:30:52.013Z,97146.50
2023-09-10T22:33:20.874Z,97138.84
2023-09-10T22:35:48.967Z,97136.13
2023-09-10T22:38:17.348Z,97134.22
2023-09-10T22:40:45.776Z,97133.25
2023-09-10T22:43:14.069Z,97133.25
2023-09-10T22:45:42.135Z,97123.91
2023-09-10T22:48:10.707Z,97117.47
2023-09-10T22:50:39.110Z,97109.09
2023-09-10T22:53:07.130Z,97116.88
2023-09-10T22:55:35.477Z,97104.31
2023-09-10T22:58:03.512Z,97106.13
2023-09-10T23:00:32.688Z,97101.16
2023-09-10T23:03:00.841Z,97099.25
2023-09-10T23:05:29.251Z,97102.59
2023-09-10T23:07:57.602Z,97099.28
2023-09-10T23:10:26.170Z,97093.25
2023-09-10T23:12:54.176Z,97087.72
2023-09-10T23:15:23.535Z,97088.28
2023-09-10T23:17:51.776Z,97079.78
2023-09-10T23:20:20.291Z,97083.81
2023-09-10T23:22:51.894Z,97075.16
2023-09-10T23:25:20.195Z,97071.69
2023-09-10T23:27:50.552Z,97073.47
2023-09-10T23:30:19.444Z,97074.53
2023-09-10T23:32:47.533Z,97073.53
2023-09-10T23:35:15.721Z,97074.81
2023-09-10T23:37:43.794Z,97066.53
2023-09-10T23:40:12.128Z,97076.66
2023-09-10T23:42:40.120Z,97066.13
2023-09-10T23:45:09.761Z,97057.47
2023-09-10T23:47:38.335Z,97059.88
2023-09-10T23:50:06.892Z,97057.84
2023-09-10T23:52:35.136Z,97046.94
2023-09-10T23:55:03.172Z,97039.94
2023-09-10T23:57:31.485Z,97039.22
2023-09-10T23:59:59.495Z,97045.44
